Time;durP1;ratioP1;P1;durP2;ratioP2;P2;SDS_P1;SDS_P2;PMS_P1;PMS_P2;Temp;Humidity;BMP_temperature;BMP_pressure;BME280_temperature;BME280_humidity;BME280_pressure;Samples;Min_cycle;Max_cycle;Signal;HPM_P1;HPM_P2
2023/05/03 00:00:16;;;;;;;4.22;2.80;;;22.80;50.40;;;;;;5041424;28;20021;-70
2023/05/03 00:02:43;;;;;;;3.50;2.28;;;22.80;50.30;;;;;;5040329;28;20068;-71
2023/05/03 00:05:11;;;;;;;5.35;2.70;;;22.80;50.40;;;;;;5070695;28;20122;-70
2023/05/03 00:07:39;;;;;;;4.30;2.67;;;22.80;50.40;;;;;;5036944;28;20047;-71
2023/05/03 00:10:05;;;;;;;3.58;2.63;;;22.80;50.40;;;;;;5040170;28;20025;-70
2023/05/03 00:12:31;;;;;;;3.10;2.15;;;22.80;50.40;;;;;;5047447;28;20029;-70
2023/05/03 00:14:57;;;;;;;3.78;2.20;;;22.80;50.40;;;;;;5040588;28;20039;-70
2023/05/03 00:17:22;;;;;;;3.25;2.30;;;22.80;50.40;;;;;;5039836;28;20030;-70
2023/05/03 00:19:48;;;;;;;3.70;2.60;;;22.80;50.40;;;;;;5038956;28;20025;-70
2023/05/03 00:22:13;;;;;;;3.13;2.13;;;22.80;50.40;;;;;;5038370;28;20045;-70
2023/05/03 00:24:39;;;;;;;4.60;2.45;;;22.70;50.30;;;;;;5037764;28;20146;-69
2023/05/03 00:27:05;;;;;;;3.53;2.50;;;22.80;50.30;;;;;;5039457;28;20360;-70
2023/05/03 00:29:31;;;;;;;3.67;2.70;;;22.80;50.40;;;;;;5039679;28;20033;-70
2023/05/03 00:31:57;;;;;;;3.60;2.33;;;22.80;50.40;;;;;;5038337;28;20366;-71
2023/05/03 00:34:22;;;;;;;4.13;2.63;;;22.80;50.40;;;;;;5035947;28;20092;-69
2023/05/03 00:36:48;;;;;;;4.47;2.22;;;22.80;50.30;;;;;;5038478;28;20499;-69
2023/05/03 00:39:13;;;;;;;3.60;2.28;;;22.70;50.30;;;;;;5039673;28;20470;-70
2023/05/03 00:41:44;;;;;;;4.28;2.40;;;22.70;50.30;;;;;;5037591;28;20037;-69
2023/05/03 00:44:09;;;;;;;3.13;2.00;;;22.70;50.30;;;;;;5037750;28;20120;-70
2023/05/03 00:46:35;;;;;;;3.30;2.30;;;22.70;50.30;;;;;;5038298;28;20049;-70
2023/05/03 00:49:01;;;;;;;3.40;2.20;;;22.70;50.30;;;;;;5040439;28;20036;-69
2023/05/03 00:51:26;;;;;;;3.60;2.30;;;22.70;50.30;;;;;;5038601;28;20108;-70
2023/05/03 00:53:52;;;;;;;4.03;2.35;;;22.70;50.30;;;;;;5039364;28;20032;-69
2023/05/03 00:56:22;;;;;;;5.18;2.30;;;22.70;50.30;;;;;;5037658;28;20065;-70
2023/05/03 00:58:49;;;;;;;3.85;2.30;;;22.70;50.30;;;;;;5040713;28;20125;-70
2023/05/03 01:01:15;;;;;;;4.00;2.30;;;22.70;50.80;;;;;;5037738;28;20398;-70
2023/05/03 01:03:41;;;;;;;3.42;2.33;;;22.70;50.30;;;;;;5039165;28;20021;-69
2023/05/03 01:06:44;;;;;;;3.67;2.30;;;22.70;50.20;;;;;;5036167;28;20073;-70
2023/05/03 01:09:24;;;;;;;3.33;2.20;;;22.70;50.20;;;;;;4990531;28;20559;-70
2023/05/03 01:12:08;;;;;;;3.38;2.40;;;22.70;50.20;;;;;;5037322;28;20064;-70
2023/05/03 01:15:09;;;;;;;3.70;2.20;;;22.70;50.30;;;;;;5038574;28;20030;-70
2023/05/03 01:17:40;;;;;;;3.88;2.25;;;22.70;50.20;;;;;;5017599;28;20049;-69
2023/05/03 01:20:11;;;;;;;4.57;2.53;;;22.70;50.20;;;;;;5036238;28;20021;-69
2023/05/03 01:22:55;;;;;;;2.60;2.00;;;22.70;50.20;;;;;;5037977;28;20493;-70
2023/05/03 01:25:21;;;;;;;3.08;1.92;;;22.70;50.20;;;;;;5040622;28;20029;-70
2023/05/03 01:27:47;;;;;;;3.35;2.00;;;22.70;50.20;;;;;;5038956;28;20041;-69
2023/05/03 01:30:13;;;;;;;3.40;2.33;;;22.70;50.20;;;;;;5035123;28;20124;-70
2023/05/03 01:33:01;;;;;;;3.95;2.38;;;22.70;50.20;;;;;;5037650;28;20025;-70
2023/05/03 01:35:55;;;;;;;3.35;2.20;;;22.70;50.20;;;;;;5034988;28;20087;-70
2023/05/03 01:38:22;;;;;;;3.17;2.10;;;22.70;50.30;;;;;;5036405;28;20119;-70
2023/05/03 01:40:50;;;;;;;3.20;2.10;;;22.70;50.20;;;;;;5039924;28;20026;-70
2023/05/03 01:43:18;;;;;;;4.03;2.20;;;22.70;50.20;;;;;;5038424;28;20029;-69
2023/05/03 01:45:44;;;;;;;3.60;2.40;;;22.70;50.20;;;;;;5036737;28;20403;-70
2023/05/03 01:48:15;;;;;;;3.50;2.10;;;22.70;50.20;;;;;;5035048;28;20030;-70
2023/05/03 01:50:41;;;;;;;3.28;2.20;;;22.70;50.20;;;;;;5037185;28;20073;-70
2023/05/03 01:53:07;;;;;;;3.60;2.03;;;22.70;50.20;;;;;;5041459;28;20465;-70
2023/05/03 01:55:32;;;;;;;3.65;2.22;;;22.60;50.10;;;;;;5036848;28;20036;-70
2023/05/03 01:57:58;;;;;;;3.38;2.10;;;22.60;50.10;;;;;;5035905;28;20033;-71
2023/05/03 02:00:24;;;;;;;3.08;2.03;;;22.60;50.10;;;;;;5037732;28;20047;-70
2023/05/03 02:02:50;;;;;;;2.83;2.22;;;22.60;50.20;;;;;;5038131;28;20029;-69
2023/05/03 02:05:15;;;;;;;3.10;1.80;;;22.60;50.20;;;;;;5038115;28;20492;-70
2023/05/03 02:07:41;;;;;;;3.33;2.08;;;22.60;50.20;;;;;;5037838;28;20075;-70
2023/05/03 02:10:07;;;;;;;3.05;2.10;;;22.60;50.70;;;;;;5038259;28;20025;-70
2023/05/03 02:12:33;;;;;;;2.95;2.00;;;22.60;50.10;;;;;;5037451;28;20025;-70
2023/05/03 02:14:59;;;;;;;3.55;2.20;;;22.60;50.10;;;;;;5037650;28;20040;-69
2023/05/03 02:17:25;;;;;;;2.45;1.95;;;22.60;50.10;;;;;;5036652;28;20021;-69
2023/05/03 02:19:54;;;;;;;3.25;2.00;;;22.60;50.20;;;;;;5037246;28;20384;-70
2023/05/03 02:22:19;;;;;;;2.83;2.00;;;22.60;50.10;;;;;;5037554;28;20470;-67
2023/05/03 02:24:46;;;;;;;3.17;2.03;;;22.60;50.10;;;;;;5037533;28;20029;-69
2023/05/03 02:27:11;;;;;;;3.28;2.10;;;22.60;50.20;;;;;;5037036;28;20048;-70
2023/05/03 02:29:37;;;;;;;2.97;2.00;;;22.60;50.20;;;;;;5037119;28;20066;-69
2023/05/03 02:32:06;;;;;;;2.70;2.00;;;22.60;50.10;;;;;;5037057;28;20036;-70
2023/05/03 02:34:32;;;;;;;2.80;2.00;;;22.60;50.20;;;;;;5037328;28;20104;-70
2023/05/03 02:36:58;;;;;;;2.90;2.15;;;22.60;50.10;;;;;;5035917;28;20151;-70
2023/05/03 02:39:23;;;;;;;2.78;2.00;;;22.60;50.20;;;;;;5037909;28;20365;-70
2023/05/03 02:41:49;;;;;;;2.80;1.90;;;22.60;50.70;;;;;;5037053;28;20017;-69
2023/05/03 02:44:15;;;;;;;2.83;2.05;;;22.60;50.20;;;;;;5036504;28;20441;-70
2023/05/03 02:46:41;;;;;;;3.30;1.90;;;22.60;50.10;;;;;;5033817;28;20041;-68
2023/05/03 02:49:07;;;;;;;3.20;2.00;;;22.60;50.10;;;;;;5036981;28;20570;-68
2023/05/03 02:51:34;;;;;;;3.50;2.00;;;22.60;50.10;;;;;;5035119;28;20064;-68
2023/05/03 02:53:59;;;;;;;3.55;2.00;;;22.50;50.10;;;;;;5037289;28;20030;-68
2023/05/03 02:56:25;;;;;;;2.90;1.90;;;22.50;50.10;;;;;;5036996;28;20032;-68
2023/05/03 02:58:51;;;;;;;2.63;1.80;;;22.50;50.10;;;;;;5034912;28;20022;-67
2023/05/03 03:01:17;;;;;;;2.80;1.95;;;22.60;50.10;;;;;;5037435;28;20060;-67
2023/05/03 03:03:43;;;;;;;2.60;1.60;;;22.50;50.10;;;;;;5036041;28;20502;-67
2023/05/03 03:06:08;;;;;;;2.90;1.90;;;22.50;50.10;;;;;;5036325;28;20460;-68
2023/05/03 03:08:35;;;;;;;2.13;1.67;;;22.60;50.10;;;;;;5042516;28;20392;-68
2023/05/03 03:11:05;;;;;;;2.67;1.92;;;22.50;50.10;;;;;;5036656;28;20078;-68
2023/05/03 03:13:30;;;;;;;2.60;1.80;;;22.50;50.00;;;;;;5043098;28;20048;-68
2023/05/03 03:15:56;;;;;;;2.30;1.60;;;22.50;50.10;;;;;;5040976;28;20048;-68
2023/05/03 03:18:21;;;;;;;2.55;1.80;;;22.50;50.00;;;;;;5041592;28;20495;-68
2023/05/03 03:20:47;;;;;;;2.50;1.70;;;22.50;50.10;;;;;;5038634;28;20106;-68
2023/05/03 03:23:13;;;;;;;2.40;1.70;;;22.50;50.10;;;;;;5040100;28;20029;-68
2023/05/03 03:25:39;;;;;;;3.10;1.90;;;22.50;50.10;;;;;;5040381;28;20400;-68
2023/05/03 03:28:05;;;;;;;3.10;1.80;;;22.50;50.10;;;;;;5039083;28;20026;-68
2023/05/03 03:30:31;;;;;;;2.63;1.80;;;22.50;50.00;;;;;;5040858;28;20044;-68
2023/05/03 03:32:56;;;;;;;2.50;1.70;;;22.50;50.00;;;;;;5040058;28;20036;-68
2023/05/03 03:35:22;;;;;;;2.42;1.77;;;22.50;50.00;;;;;;5042125;28;20126;-68
2023/05/03 03:37:47;;;;;;;2.42;1.85;;;22.50;50.00;;;;;;5041772;28;20025;-68
2023/05/03 03:40:13;;;;;;;2.40;1.60;;;22.50;50.00;;;;;;5039193;28;20115;-67
2023/05/03 03:42:39;;;;;;;2.55;1.73;;;22.50;50.00;;;;;;5039842;28;20071;-68
2023/05/03 03:45:05;;;;;;;2.40;1.50;;;22.50;50.00;;;;;;5040244;28;20053;-68
2023/05/03 03:47:31;;;;;;;2.30;1.75;;;22.50;50.10;;;;;;5040368;28;20025;-68
2023/05/03 03:49:59;;;;;;;2.33;1.60;;;22.50;50.00;;;;;;5041120;28;20458;-67
2023/05/03 03:52:25;;;;;;;2.08;1.50;;;22.50;50.00;;;;;;5053329;28;20034;-68
2023/05/03 03:54:51;;;;;;;2.67;1.65;;;22.50;50.10;;;;;;5040106;28;20036;-67
2023/05/03 03:57:16;;;;;;;2.85;1.65;;;22.50;50.10;;;;;;5041027;28;20472;-67
2023/05/03 03:59:42;;;;;;;2.20;1.60;;;22.50;50.10;;;;;;5040105;28;20024;-67
2023/05/03 04:02:07;;;;;;;3.25;1.80;;;22.50;50.10;;;;;;5040545;28;20411;-68
2023/05/03 04:04:33;;;;;;;2.20;1.67;;;22.50;50.10;;;;;;5041431;28;20033;-67
2023/05/03 04:06:58;;;;;;;2.70;1.63;;;22.40;50.00;;;;;;5039042;28;20469;-68
2023/05/03 04:09:24;;;;;;;2.30;1.58;;;22.40;50.00;;;;;;5041518;28;20037;-68
2023/05/03 04:11:50;;;;;;;2.80;1.70;;;22.50;50.10;;;;;;5042497;28;20043;-67
2023/05/03 04:14:15;;;;;;;1.98;1.40;;;22.40;50.50;;;;;;5042104;28;20049;-68
2023/05/03 04:16:41;;;;;;;2.35;1.70;;;22.40;50.10;;;;;;5040544;28;20463;-66
2023/05/03 04:19:06;;;;;;;2.42;1.60;;;22.40;50.00;;;;;;5041971;28;20035;-67
2023/05/03 04:21:32;;;;;;;2.30;1.40;;;22.50;50.10;;;;;;5037896;28;20032;-68
2023/05/03 04:23:59;;;;;;;2.38;1.42;;;22.40;50.00;;;;;;5037417;28;20074;-68
2023/05/03 04:26:25;;;;;;;2.17;1.58;;;22.40;50.00;;;;;;5039803;28;20020;-67
2023/05/03 04:28:50;;;;;;;2.35;1.70;;;22.40;50.00;;;;;;5040472;28;20478;-68
2023/05/03 04:31:20;;;;;;;2.30;1.60;;;22.40;50.10;;;;;;5040104;28;20215;-67
2023/05/03 04:33:46;;;;;;;2.85;1.88;;;22.40;50.10;;;;;;5038186;28;20115;-66
2023/05/03 04:36:14;;;;;;;2.60;1.70;;;22.40;50.10;;;;;;5038902;28;20083;-67
2023/05/03 04:38:44;;;;;;;2.10;1.50;;;22.40;50.10;;;;;;5037791;28;20144;-67
2023/05/03 04:41:10;;;;;;;2.45;1.45;;;22.40;50.10;;;;;;5034107;28;20021;-66
2023/05/03 04:43:36;;;;;;;2.40;1.60;;;22.40;50.10;;;;;;5039977;28;20469;-67
2023/05/03 04:46:04;;;;;;;2.10;1.60;;;22.40;50.10;;;;;;5037938;28;20025;-67
2023/05/03 04:48:30;;;;;;;2.60;1.77;;;22.40;50.20;;;;;;5044993;28;20504;-66
2023/05/03 04:50:56;;;;;;;2.50;1.60;;;22.40;50.20;;;;;;5038866;28;20036;-67
2023/05/03 04:53:22;;;;;;;2.13;1.50;;;22.40;50.10;;;;;;5036452;28;20057;-66
2023/05/03 04:55:49;;;;;;;2.20;1.55;;;22.40;50.20;;;;;;5038651;28;20163;-66
2023/05/03 04:58:15;;;;;;;2.35;1.50;;;22.30;50.10;;;;;;5037548;28;20434;-67
2023/05/03 05:00:41;;;;;;;2.53;1.70;;;22.30;50.60;;;;;;5036651;28;20064;-67
2023/05/03 05:03:06;;;;;;;1.98;1.52;;;22.40;50.20;;;;;;5037939;28;20331;-67
2023/05/03 05:05:32;;;;;;;2.10;1.50;;;22.40;50.20;;;;;;5039330;28;20071;-68
2023/05/03 05:07:58;;;;;;;2.30;1.55;;;22.30;50.10;;;;;;5037305;28;20112;-68
2023/05/03 05:10:24;;;;;;;2.22;1.50;;;22.40;50.20;;;;;;5039219;28;20026;-67
2023/05/03 05:12:49;;;;;;;2.47;1.58;;;22.30;50.10;;;;;;5036741;28;20118;-67
2023/05/03 05:15:15;;;;;;;3.00;1.80;;;22.40;50.20;;;;;;5039964;28;20468;-67
2023/05/03 05:17:41;;;;;;;2.55;1.60;;;22.40;50.20;;;;;;5038522;28;20040;-67
2023/05/03 05:20:11;;;;;;;2.10;1.40;;;22.30;50.10;;;;;;5039148;28;20117;-67
2023/05/03 05:22:37;;;;;;;2.13;1.40;;;22.40;50.20;;;;;;5037109;28;20021;-67
2023/05/03 05:25:03;;;;;;;2.30;1.50;;;22.30;50.10;;;;;;5038533;28;20033;-68
2023/05/03 05:27:28;;;;;;;1.98;1.63;;;22.30;50.10;;;;;;5036756;28;20072;-67
2023/05/03 05:29:54;;;;;;;2.20;1.50;;;22.30;50.10;;;;;;5044153;28;20085;-67
2023/05/03 05:32:21;;;;;;;2.55;1.50;;;22.40;50.10;;;;;;5036364;28;20049;-67
2023/05/03 05:34:51;;;;;;;2.28;1.40;;;22.40;50.10;;;;;;5037872;28;20074;-68
2023/05/03 05:37:17;;;;;;;2.50;1.30;;;22.30;50.10;;;;;;5035699;28;20440;-68
2023/05/03 05:39:44;;;;;;;2.13;1.30;;;22.30;50.10;;;;;;5037415;28;20029;-68
2023/05/03 05:42:09;;;;;;;3.75;1.80;;;22.30;50.10;;;;;;5037841;28;20026;-68
2023/05/03 05:44:35;;;;;;;2.20;1.60;;;22.30;50.10;;;;;;5039507;28;20039;-67
2023/05/03 05:47:00;;;;;;;2.40;1.50;;;22.30;50.10;;;;;;5038991;28;20473;-68
2023/05/03 05:49:26;;;;;;;2.72;1.70;;;22.30;50.00;;;;;;5039014;28;20029;-68
2023/05/03 05:51:52;;;;;;;2.47;1.50;;;22.30;50.10;;;;;;5051798;28;20438;-69
2023/05/03 05:54:17;;;;;;;2.33;1.33;;;22.30;50.10;;;;;;5036476;28;20504;-68
2023/05/03 05:56:43;;;;;;;1.95;1.40;;;22.30;50.10;;;;;;5037061;28;20028;-68
2023/05/03 05:59:09;;;;;;;2.35;1.42;;;22.30;50.10;;;;;;5038398;28;20025;-68
2023/05/03 06:01:35;;;;;;;2.25;1.42;;;22.30;50.20;;;;;;5037948;28;20037;-68
2023/05/03 06:04:00;;;;;;;2.00;1.52;;;22.30;50.10;;;;;;5039549;28;20124;-68
2023/05/03 06:06:26;;;;;;;2.30;1.60;;;22.30;50.10;;;;;;5038285;28;20105;-69
2023/05/03 06:08:51;;;;;;;2.88;1.60;;;22.30;50.10;;;;;;5043130;28;20426;-68
2023/05/03 06:11:17;;;;;;;2.30;1.50;;;22.30;50.10;;;;;;5036504;28;20088;-69
2023/05/03 06:13:43;;;;;;;1.77;1.40;;;22.20;50.00;;;;;;5037648;28;20029;-68
2023/05/03 06:16:10;;;;;;;2.28;1.50;;;22.30;50.10;;;;;;5033818;28;20021;-68
2023/05/03 06:18:35;;;;;;;2.00;1.33;;;22.30;50.00;;;;;;5034389;28;20060;-69
2023/05/03 06:21:01;;;;;;;2.03;1.20;;;22.30;50.00;;;;;;5038916;28;20846;-69
2023/05/03 06:23:27;;;;;;;2.30;1.33;;;22.20;50.00;;;;;;5035876;28;20104;-69
2023/05/03 06:25:52;;;;;;;2.40;1.30;;;22.30;50.00;;;;;;5036576;28;20127;-69
2023/05/03 06:28:18;;;;;;;2.67;1.40;;;22.30;50.10;;;;;;5038384;28;20036;-69
2023/05/03 06:30:50;;;;;;;2.40;1.58;;;22.20;50.00;;;;;;5036337;28;20033;-69
2023/05/03 06:33:16;;;;;;;2.40;1.30;;;22.20;50.00;;;;;;5033999;28;20034;-69
2023/05/03 06:35:42;;;;;;;1.80;1.20;;;22.20;50.00;;;;;;5035881;28;20032;-69
2023/05/03 06:38:09;;;;;;;2.22;1.33;;;22.30;50.00;;;;;;5038248;28;20353;-69
2023/05/03 06:40:34;;;;;;;2.70;1.40;;;22.30;50.10;;;;;;5038820;28;20468;-70
2023/05/03 06:43:00;;;;;;;2.78;1.58;;;22.20;50.00;;;;;;5042078;28;20018;-69
2023/05/03 06:45:25;;;;;;;1.80;1.25;;;22.20;50.00;;;;;;5037943;28;20451;-70
2023/05/03 06:47:51;;;;;;;2.08;1.30;;;22.30;50.10;;;;;;5042201;28;20464;-70
2023/05/03 06:50:18;;;;;;;1.95;1.30;;;22.30;50.10;;;;;;5041017;28;20033;-70
2023/05/03 06:52:45;;;;;;;2.95;1.48;;;22.20;50.10;;;;;;5040721;28;20096;-70
2023/05/03 06:55:11;;;;;;;2.22;1.33;;;22.20;50.10;;;;;;5042567;28;20052;-70
2023/05/03 06:57:37;;;;;;;2.20;1.48;;;22.20;50.10;;;;;;5040759;28;20025;-69
2023/05/03 07:00:06;;;;;;;2.30;1.30;;;22.20;50.10;;;;;;5041408;28;20040;-70
2023/05/03 07:02:32;;;;;;;2.40;1.40;;;22.20;50.10;;;;;;5042348;28;20029;-70
2023/05/03 07:04:57;;;;;;;2.25;1.50;;;22.30;50.20;;;;;;5041627;28;20018;-69
2023/05/03 07:07:23;;;;;;;2.25;1.30;;;22.20;50.10;;;;;;5039944;28;20087;-70
2023/05/03 07:09:49;;;;;;;2.22;1.33;;;22.20;50.20;;;;;;5042087;28;20039;-70
2023/05/03 07:12:15;;;;;;;2.20;1.30;;;22.30;50.30;;;;;;5041989;28;20432;-70
2023/05/03 07:14:41;;;;;;;2.03;1.30;;;22.20;50.20;;;;;;5041074;28;20488;-70
2023/05/03 07:17:07;;;;;;;2.40;1.38;;;22.20;50.30;;;;;;5041951;28;20035;-70
2023/05/03 07:19:33;;;;;;;2.20;1.30;;;22.30;50.30;;;;;;5041254;28;20472;-70
2023/05/03 07:21:58;;;;;;;2.40;1.30;;;22.30;50.30;;;;;;5042017;28;20057;-70
2023/05/03 07:24:24;;;;;;;1.83;1.35;;;22.20;50.30;;;;;;5037636;28;20017;-70
2023/05/03 07:26:51;;;;;;;1.60;1.00;;;22.20;50.30;;;;;;5040112;28;20029;-70
2023/05/03 07:29:16;;;;;;;2.20;1.30;;;22.20;50.30;;;;;;5043514;28;20037;-70
2023/05/03 07:31:43;;;;;;;1.90;1.20;;;22.20;50.30;;;;;;5040264;28;20036;-70
2023/05/03 07:34:09;;;;;;;2.03;1.30;;;22.20;50.30;;;;;;5040696;28;20112;-70
2023/05/03 07:36:35;;;;;;;2.28;1.27;;;22.20;50.30;;;;;;5038767;28;20764;-70
2023/05/03 07:39:01;;;;;;;2.10;1.33;;;22.20;50.30;;;;;;5040130;28;20021;-70
2023/05/03 07:41:27;;;;;;;2.42;1.40;;;22.20;50.30;;;;;;5040878;28;20378;-70
2023/05/03 07:43:53;;;;;;;2.42;1.33;;;22.30;50.30;;;;;;5041258;28;20037;-71
2023/05/03 07:46:19;;;;;;;2.50;1.45;;;22.20;50.30;;;;;;5043150;28;20437;-70
2023/05/03 07:48:45;;;;;;;1.80;1.10;;;22.20;50.20;;;;;;5038553;28;20104;-71
2023/05/03 07:51:10;;;;;;;2.03;1.30;;;22.20;50.20;;;;;;5039242;28;20365;-71
2023/05/03 07:53:38;;;;;;;2.40;1.55;;;22.20;50.30;;;;;;5038902;28;20026;-71
2023/05/03 07:56:04;;;;;;;2.38;1.30;;;22.20;50.30;;;;;;5039356;28;20036;-71
2023/05/03 07:58:30;;;;;;;1.77;1.23;;;22.20;50.30;;;;;;5047173;28;20397;-71
2023/05/03 08:00:56;;;;;;;2.05;1.30;;;22.20;50.30;;;;;;5042284;28;20017;-71
2023/05/03 08:03:22;;;;;;;2.42;1.40;;;22.20;50.30;;;;;;5039908;28;20052;-71
2023/05/03 08:05:48;;;;;;;2.00;1.38;;;22.20;50.30;;;;;;5041868;28;20024;-71
2023/05/03 08:08:14;;;;;;;2.08;1.40;;;22.20;50.40;;;;;;5034479;28;20104;-72
2023/05/03 08:10:40;;;;;;;2.63;1.55;;;22.20;50.30;;;;;;5040756;28;20424;-72
2023/05/03 08:13:05;;;;;;;2.47;1.50;;;22.20;50.30;;;;;;5040354;28;20103;-72
2023/05/03 08:15:32;;;;;;;2.72;1.40;;;22.20;50.30;;;;;;5040744;28;20017;-72
2023/05/03 08:17:59;;;;;;;2.70;1.55;;;22.20;50.40;;;;;;5040394;28;20497;-72
2023/05/03 08:20:28;;;;;;;1.95;1.45;;;22.20;50.30;;;;;;5053781;28;20504;-72
2023/05/03 08:22:55;;;;;;;2.50;1.50;;;22.20;50.40;;;;;;5038220;28;20481;-72
2023/05/03 08:25:27;;;;;;;2.90;1.50;;;22.20;50.40;;;;;;5036596;28;20029;-72
2023/05/03 08:27:54;;;;;;;2.22;1.38;;;22.20;50.40;;;;;;5035134;28;20104;-72
2023/05/03 08:30:20;;;;;;;2.10;1.20;;;22.20;50.30;;;;;;5038187;28;20029;-72
2023/05/03 08:32:46;;;;;;;1.80;1.30;;;22.20;50.30;;;;;;5039357;28;20450;-72
2023/05/03 08:35:14;;;;;;;2.40;1.38;;;22.20;50.40;;;;;;5038932;28;20025;-72
2023/05/03 08:37:41;;;;;;;2.40;1.30;;;22.20;50.30;;;;;;5038431;28;20100;-72
2023/05/03 08:40:09;;;;;;;2.00;1.30;;;22.20;50.40;;;;;;5036888;28;20057;-72
2023/05/03 08:42:38;;;;;;;2.08;1.30;;;22.20;50.40;;;;;;5039091;28;20519;-72
2023/05/03 08:45:07;;;;;;;2.40;1.60;;;22.20;50.30;;;;;;5042056;28;20174;-72
2023/05/03 08:47:36;;;;;;;2.10;1.30;;;22.20;50.30;;;;;;5039420;28;20028;-72
2023/05/03 08:50:03;;;;;;;2.45;1.60;;;22.20;50.30;;;;;;5041122;28;20485;-72
2023/05/03 08:52:30;;;;;;;1.90;1.20;;;22.20;50.30;;;;;;5039526;28;20025;-72
2023/05/03 08:54:55;;;;;;;2.00;1.25;;;22.20;50.30;;;;;;5039261;28;20025;-73
2023/05/03 08:57:24;;;;;;;2.17;1.40;;;22.20;50.30;;;;;;5039937;28;20029;-72
2023/05/03 08:59:57;;;;;;;1.90;1.38;;;22.30;50.30;;;;;;5038492;28;20079;-72
2023/05/03 09:02:23;;;;;;;2.20;1.30;;;22.20;50.20;;;;;;5039202;28;20586;-72
2023/05/03 09:04:48;;;;;;;2.03;1.30;;;22.20;50.20;;;;;;5037274;28;20025;-72
2023/05/03 09:07:18;;;;;;;1.98;1.33;;;22.20;50.20;;;;;;5036680;28;20025;-72
2023/05/03 09:09:45;;;;;;;2.05;1.27;;;22.20;50.20;;;;;;5037606;28;20104;-72
2023/05/03 09:12:11;;;;;;;2.22;1.40;;;22.20;50.20;;;;;;5038296;28;20034;-73
2023/05/03 09:14:45;;;;;;;2.13;1.40;;;22.20;50.20;;;;;;5038434;28;20060;-72
2023/05/03 09:17:16;;;;;;;2.85;1.40;;;22.30;50.30;;;;;;5037879;28;20488;-73
2023/05/03 09:20:08;;;;;;;2.50;1.50;;;22.20;50.20;;;;;;5038827;28;20029;-72
2023/05/03 09:22:36;;;;;;;2.25;1.35;;;22.30;50.20;;;;;;5031434;28;20064;-73
2023/05/03 09:25:02;;;;;;;2.25;1.48;;;22.30;50.20;;;;;;5033687;28;20096;-73
2023/05/03 09:27:28;;;;;;;2.70;1.50;;;22.20;50.20;;;;;;5038461;28;20556;-73
2023/05/03 09:29:54;;;;;;;2.20;1.23;;;22.20;50.20;;;;;;5038413;28;20123;-72
2023/05/03 09:32:24;;;;;;;1.80;1.10;;;22.30;50.30;;;;;;5039157;28;20037;-72
2023/05/03 09:34:49;;;;;;;2.38;1.50;;;22.30;50.20;;;;;;5037465;28;20026;-72
2023/05/03 09:37:15;;;;;;;2.60;1.40;;;22.20;50.20;;;;;;5036699;28;20087;-72
2023/05/03 09:39:43;;;;;;;2.20;1.30;;;22.30;50.20;;;;;;5032500;28;20029;-72
2023/05/03 09:42:14;;;;;;;1.98;1.30;;;22.30;50.20;;;;;;5037315;28;20025;-72
2023/05/03 09:44:41;;;;;;;1.63;1.27;;;22.30;50.20;;;;;;5043700;28;20112;-72
2023/05/03 09:47:08;;;;;;;1.85;1.35;;;22.30;50.20;;;;;;5035810;28;20116;-72
2023/05/03 09:49:35;;;;;;;1.95;1.30;;;22.30;50.20;;;;;;5036662;28;20488;-72
2023/05/03 09:52:02;;;;;;;2.20;1.40;;;22.30;50.20;;;;;;5039592;28;20120;-73
2023/05/03 09:54:30;;;;;;;1.95;1.40;;;22.30;50.20;;;;;;5037750;28;20029;-72
2023/05/03 09:56:56;;;;;;;2.50;1.30;;;22.20;50.20;;;;;;5037242;28;20017;-72
2023/05/03 09:59:22;;;;;;;2.08;1.42;;;22.30;50.20;;;;;;5038432;28;20040;-73
2023/05/03 10:01:51;;;;;;;1.33;1.00;;;22.30;50.20;;;;;;5037039;28;20021;-73
2023/05/03 10:04:18;;;;;;;1.55;1.20;;;22.30;50.20;;;;;;5037471;28;20021;-73
2023/05/03 10:06:48;;;;;;;1.55;1.20;;;22.30;50.20;;;;;;5038147;28;20117;-73
2023/05/03 10:09:39;;;;;;;1.52;1.15;;;22.30;50.20;;;;;;5036963;28;20029;-72
2023/05/03 10:12:08;;;;;;;2.13;1.30;;;22.30;50.20;;;;;;5035970;28;20095;-73
2023/05/03 10:14:34;;;;;;;;;;;22.30;50.20;;;;;;5036982;28;20506;-73
2023/05/03 10:17:07;;;;;;;1.88;1.30;;;22.30;50.20;;;;;;5038774;28;19905;-73
2023/05/03 10:19:39;;;;;;;2.22;1.27;;;22.30;50.10;;;;;;5037601;28;20030;-73
2023/05/03 10:22:07;;;;;;;1.70;1.25;;;22.30;50.20;;;;;;5034604;28;20037;-73
2023/05/03 10:24:58;;;;;;;2.10;1.20;;;22.30;50.20;;;;;;5043073;28;20461;-73
2023/05/03 10:27:25;;;;;;;2.63;1.42;;;22.30;50.10;;;;;;5037291;28;20029;-73
2023/05/03 10:29:51;;;;;;;2.13;1.27;;;22.30;50.10;;;;;;5039346;28;20209;-73
2023/05/03 10:32:38;;;;;;;1.83;1.20;;;22.30;50.10;;;;;;5037596;28;20481;-73
2023/05/03 10:35:08;;;;;;;1.75;1.10;;;22.30;50.10;;;;;;5036780;28;20418;-73
2023/05/03 10:37:34;;;;;;;1.30;1.00;;;22.30;50.10;;;;;;5037301;28;20063;-73
2023/05/03 10:40:06;;;;;;;2.05;1.30;;;22.30;50.10;;;;;;5036000;28;20021;-73
2023/05/03 10:42:32;;;;;;;1.48;1.15;;;22.30;50.10;;;;;;5036191;28;20032;-73
2023/05/03 10:45:01;;;;;;;2.08;1.30;;;22.30;50.10;;;;;;5037873;28;20381;-72
2023/05/03 10:47:27;;;;;;;1.63;1.20;;;22.30;50.10;;;;;;5037876;28;20025;-72
2023/05/03 10:50:10;;;;;;;2.00;1.30;;;22.30;50.10;;;;;;5036512;28;20030;-72
2023/05/03 10:52:41;;;;;;;1.80;1.20;;;22.30;50.10;;;;;;5033690;28;20439;-72
2023/05/03 10:55:12;;;;;;;2.03;1.13;;;22.30;50.10;;;;;;5032259;28;20030;-72
2023/05/03 10:57:42;;;;;;;1.80;1.20;;;22.30;50.10;;;;;;5036038;28;20072;-72
2023/05/03 11:00:30;;;;;;;1.50;1.10;;;22.30;50.10;;;;;;5036364;28;20065;-72
2023/05/03 11:03:14;;;;;;;2.33;1.33;;;22.30;50.10;;;;;;5036397;28;20044;-72
2023/05/03 11:05:41;;;;;;;1.70;1.25;;;22.30;50.10;;;;;;5034734;28;20029;-72
2023/05/03 11:08:18;;;;;;;1.60;1.10;;;22.30;50.10;;;;;;5032485;28;20040;-71
2023/05/03 11:10:45;;;;;;;2.10;1.40;;;22.40;50.20;;;;;;5034154;28;20037;-72
2023/05/03 11:13:11;;;;;;;2.72;1.10;;;22.30;50.10;;;;;;5036951;28;20033;-72
2023/05/03 11:15:38;;;;;;;1.52;1.00;;;22.30;50.10;;;;;;5052700;28;20487;-72
2023/05/03 11:18:08;;;;;;;2.17;1.30;;;22.30;50.10;;;;;;5034185;28;20219;-72
2023/05/03 11:20:34;;;;;;;3.03;1.58;;;22.30;50.10;;;;;;5037435;28;20028;-71
2023/05/03 11:23:01;;;;;;;1.48;1.13;;;22.30;50.10;;;;;;5037393;28;20025;-70
2023/05/03 11:25:27;;;;;;;2.03;1.25;;;22.30;50.00;;;;;;5034773;28;20474;-72
2023/05/03 11:27:52;;;;;;;1.48;1.00;;;22.30;50.10;;;;;;5036707;28;20025;-71
2023/05/03 11:30:18;;;;;;;1.60;1.17;;;22.40;50.10;;;;;;5041163;28;20039;-72
2023/05/03 11:32:44;;;;;;;2.45;1.30;;;22.30;50.00;;;;;;5041090;28;20067;-73
2023/05/03 11:35:12;;;;;;;1.42;1.10;;;22.40;50.10;;;;;;5041804;28;20033;-71
2023/05/03 11:37:38;;;;;;;1.88;1.40;;;22.30;50.00;;;;;;5038908;28;20501;-71
2023/05/03 11:40:07;;;;;;;1.85;1.23;;;22.30;50.10;;;;;;5040955;28;20037;-71
2023/05/03 11:42:33;;;;;;;2.13;1.48;;;22.30;50.00;;;;;;5040409;28;20072;-72
2023/05/03 11:45:00;;;;;;;2.58;1.40;;;22.40;50.00;;;;;;5041191;28;20449;-72
2023/05/03 11:47:26;;;;;;;2.40;1.30;;;22.30;50.00;;;;;;5041631;28;20029;-71
2023/05/03 11:49:53;;;;;;;1.77;1.20;;;22.30;50.00;;;;;;5042307;28;20040;-73
2023/05/03 11:52:22;;;;;;;1.67;1.20;;;22.30;50.00;;;;;;5039438;28;20033;-72
2023/05/03 11:54:48;;;;;;;1.67;1.20;;;22.30;49.90;;;;;;5041506;28;20727;-72
2023/05/03 11:57:15;;;;;;;1.80;1.20;;;22.40;50.00;;;;;;5041959;28;20563;-74
2023/05/03 11:59:41;;;;;;;1.73;1.20;;;22.30;49.90;;;;;;5039545;28;20535;-72
2023/05/03 12:02:08;;;;;;;2.05;1.30;;;22.40;50.00;;;;;;5039896;28;20841;-73
2023/05/03 12:04:39;;;;;;;2.00;1.30;;;22.40;50.00;;;;;;5040539;28;20120;-73
2023/05/03 12:07:06;;;;;;;1.63;1.20;;;22.40;50.00;;;;;;5039578;28;20503;-73
2023/05/03 12:09:32;;;;;;;1.70;1.20;;;22.40;50.00;;;;;;5039809;28;20330;-73
2023/05/03 12:11:59;;;;;;;2.30;1.30;;;22.30;49.90;;;;;;5036483;28;20032;-73
2023/05/03 12:14:25;;;;;;;1.52;1.08;;;22.40;49.90;;;;;;5041171;28;20523;-73
2023/05/03 12:16:52;;;;;;;1.60;1.20;;;22.40;50.00;;;;;;5039826;28;20029;-72
2023/05/03 12:19:28;;;;;;;1.67;1.10;;;22.40;50.00;;;;;;5041265;28;20542;-73
2023/05/03 12:21:54;;;;;;;1.92;1.25;;;22.40;49.90;;;;;;5040267;28;20017;-72
2023/05/03 12:24:22;;;;;;;1.67;1.20;;;22.40;49.90;;;;;;5040208;28;20029;-70
2023/05/03 12:26:48;;;;;;;1.50;1.20;;;22.40;49.90;;;;;;5039162;28;20131;-72
2023/05/03 12:29:15;;;;;;;1.27;1.10;;;22.40;49.90;;;;;;5039270;28;20547;-72
2023/05/03 12:31:41;;;;;;;1.88;1.10;;;22.40;49.90;;;;;;5040614;28;20021;-72
2023/05/03 12:34:07;;;;;;;1.40;1.20;;;22.40;49.90;;;;;;5038473;28;20114;-71
2023/05/03 12:36:34;;;;;;;1.55;1.00;;;22.40;49.90;;;;;;5038313;28;20025;-71
2023/05/03 12:39:00;;;;;;;1.70;1.13;;;22.40;49.90;;;;;;5037089;28;20175;-72
2023/05/03 12:41:28;;;;;;;1.63;1.20;;;22.40;49.90;;;;;;5037600;28;20798;-72
2023/05/03 12:43:55;;;;;;;1.55;1.08;;;22.40;49.80;;;;;;5036262;28;20024;-71
2023/05/03 12:46:22;;;;;;;1.40;1.15;;;22.40;49.80;;;;;;5040254;28;20021;-73
2023/05/03 12:48:51;;;;;;;1.58;1.27;;;22.40;49.90;;;;;;5038859;28;20071;-71